Little Rock Air Force Base, Arkansas
Current Conditions -  °F | °C
As of 3:58 AM on Tuesday 21 Oct 2014 (Local Time) from KLRF Reporting Station
Clear Clear  
Wind Chill: 52°   Ceiling: Unl
Heat Index: 52°   Visibility: 9mi
Dew Point: 51°   Wind: 5mph
Humidity: 97%   Direction: 250°WSW
Pressure: 30.04"   Gusts: NA
Location:  34.9074°N, 92.1397°W
Report Text: KLRF 210858Z AUTO 25004KT 9SM CLR 11/11 A3004 RMK AO2 SLP174 T01110107 50000
Loading
Personal Weather Stations






























Interactive Weather Map New forecast layout! Learn more

10-Day Weather Forecast

Advertisements
Track Severe Weather on mobile